Terminal Aerodrome Forecast
Issued by NWS

Home | Current Version | Previous Version | Text Only | Print | Product List | Glossary On
Versions: 1 2 3 4 5 6 7 8 9 10 11 12 13 14 15
000
FTUS41 KBTV 230142 AAA
TAFMPV
TAF AMD
KMPV 230142Z 2302/2324 16006KT 4SM -FZRAPL BR OVC015
     FM230600 17010KT 4SM -RA BR OVC015
     FM230800 17010KT 2SM BR VCSH OVC008
     FM231300 18009KT 4SM RA BR OVC015 WS020/17040KT
     FM231900 18005KT 4SM -RA BR OVC015=

USA.gov is the U.S. government's official web portal to all federal, state and local government web resources and services.